createdAt,value
2022-12-23T00:01:24.570Z,100211.94
2022-12-23T00:03:57.351Z,100210.06
2022-12-23T00:06:25.553Z,100209.50
2022-12-23T00:08:58.702Z,100215.16
2022-12-23T00:11:28.124Z,100216.00
2022-12-23T00:14:20.395Z,100222.28
2022-12-23T00:16:51.356Z,100216.84
2022-12-23T00:19:20.880Z,100211.94
2022-12-23T00:21:49.392Z,100213.16
2022-12-23T00:24:17.313Z,100218.41
2022-12-23T00:26:45.149Z,100217.38
2022-12-23T00:29:13.054Z,100222.16
2022-12-23T00:31:41.070Z,100214.81
2022-12-23T00:34:10.432Z,100221.97
2022-12-23T00:36:40.926Z,100207.50
2022-12-23T00:39:30.740Z,100212.47
2022-12-23T00:42:27.756Z,100207.88
2022-12-23T00:45:15.729Z,100208.72
2022-12-23T00:48:01.918Z,100208.06
2022-12-23T00:50:30.742Z,100217.41
2022-12-23T00:53:00.365Z,100216.75
2022-12-23T00:55:28.464Z,100225.94
2022-12-23T00:57:56.496Z,100229.00
2022-12-23T01:00:45.295Z,100227.16
2022-12-23T01:03:28.461Z,100227.31
2022-12-23T01:05:59.284Z,100231.94
2022-12-23T01:08:29.008Z,100241.78
2022-12-23T01:10:56.992Z,100259.63
2022-12-23T01:13:25.028Z,100261.31
2022-12-23T01:15:52.908Z,100263.19
2022-12-23T01:18:20.817Z,100262.16
2022-12-23T01:20:48.731Z,100265.25
2022-12-23T01:23:16.620Z,100260.47
2022-12-23T01:25:45.835Z,100261.16
2022-12-23T01:28:13.731Z,100257.56
2022-12-23T01:30:41.668Z,100268.09
2022-12-23T01:33:09.695Z,100259.78
2022-12-23T01:35:37.657Z,100268.44
2022-12-23T01:38:05.534Z,100281.19
2022-12-23T01:40:36.429Z,100272.53
2022-12-23T01:43:04.773Z,100271.19
2022-12-23T01:45:34.559Z,100276.28
2022-12-23T01:48:06.115Z,100280.00
2022-12-23T01:50:37.595Z,100272.53
2022-12-23T01:53:09.472Z,100276.63
2022-12-23T01:55:41.605Z,100283.41
2022-12-23T01:58:14.360Z,100289.53
2022-12-23T02:01:01.184Z,100297.38
2022-12-23T02:03:44.848Z,100302.13
2022-12-23T02:06:36.630Z,100308.63
2022-12-23T02:09:20.238Z,100316.28
2022-12-23T02:12:21.461Z,100315.59
2022-12-23T02:15:36.232Z,100313.72
2022-12-23T02:18:21.923Z,100312.34
2022-12-23T02:21:18.110Z,100327.84
2022-12-23T02:24:17.510Z,100320.53
2022-12-23T02:27:08.615Z,100329.03
2022-12-23T02:30:04.437Z,100339.59
2022-12-23T02:32:44.859Z,100338.22
2022-12-23T02:35:15.950Z,100335.19
2022-12-23T02:37:53.035Z,100334.69
2022-12-23T02:40:30.232Z,100328.41
2022-12-23T02:43:03.679Z,100342.66
2022-12-23T02:45:37.736Z,100344.72
2022-12-23T02:48:13.266Z,100334.69
2022-12-23T02:50:44.167Z,100343.22
2022-12-23T02:53:20.106Z,100345.94
2022-12-23T02:55:50.316Z,100354.91
2022-12-23T02:58:22.135Z,100357.47
2022-12-23T03:00:51.686Z,100369.88
2022-12-23T03:03:22.329Z,100364.44
2022-12-23T03:05:52.306Z,100359.34
2022-12-23T03:08:25.105Z,100363.41
2022-12-23T03:11:04.547Z,100366.34
2022-12-23T03:13:48.573Z,100381.28
2022-12-23T03:16:23.588Z,100385.22
2022-12-23T03:19:09.071Z,100382.34
2022-12-23T03:21:44.371Z,100390.50
2022-12-23T03:24:23.155Z,100394.75
2022-12-23T03:26:56.779Z,100398.34
2022-12-23T03:29:29.636Z,100395.44
2022-12-23T03:32:00.880Z,100392.56
2022-12-23T03:34:35.334Z,100395.09
2022-12-23T03:37:07.425Z,100394.91
2022-12-23T03:39:39.630Z,100392.19
2022-12-23T03:42:14.374Z,100402.56
2022-12-23T03:45:19.107Z,100403.75
2022-12-23T03:47:44.580Z,100403.41
2022-12-23T03:50:16.706Z,100402.03
2022-12-23T03:52:51.460Z,100401.72
2022-12-23T03:55:25.137Z,100405.28
2022-12-23T03:57:59.812Z,100407.00
2022-12-23T04:00:31.415Z,100409.38
2022-12-23T04:03:07.165Z,100407.31
2022-12-23T04:05:40.644Z,100415.31
2022-12-23T04:08:14.434Z,100416.50
2022-12-23T04:10:42.869Z,100421.78
2022-12-23T04:13:11.045Z,100415.31
2022-12-23T04:15:41.196Z,100419.56
2022-12-23T04:18:10.717Z,100413.97
2022-12-23T04:20:40.032Z,100422.28
2022-12-23T04:23:07.949Z,100420.41
2022-12-23T04:25:36.311Z,100416.84
2022-12-23T04:28:04.519Z,100423.81
2022-12-23T04:30:34.757Z,100422.94
2022-12-23T04:33:03.440Z,100438.25
2022-12-23T04:35:31.874Z,100435.34
2022-12-23T04:38:01.285Z,100442.84
2022-12-23T04:40:29.246Z,100430.94
2022-12-23T04:42:57.169Z,100433.66
2022-12-23T04:45:25.031Z,100438.44
2022-12-23T04:47:54.449Z,100428.22
2022-12-23T04:50:22.437Z,100433.16
2022-12-23T04:52:50.606Z,100424.50
2022-12-23T04:55:20.100Z,100426.34
2022-12-23T04:57:47.938Z,100432.31
2022-12-23T05:00:16.766Z,100438.94
2022-12-23T05:02:44.804Z,100439.44
2022-12-23T05:05:12.867Z,100439.44
2022-12-23T05:07:40.767Z,100431.97
2022-12-23T05:10:10.029Z,100439.63
2022-12-23T05:12:39.314Z,100444.53
2022-12-23T05:15:09.060Z,100454.38
2022-12-23T05:17:36.946Z,100456.25
2022-12-23T05:20:05.183Z,100452.50
2022-12-23T05:22:33.094Z,100453.19
2022-12-23T05:25:01.027Z,100455.91
2022-12-23T05:27:29.068Z,100446.56
2022-12-23T05:29:58.326Z,100449.63
2022-12-23T05:32:26.269Z,100455.06
2022-12-23T05:34:54.085Z,100446.38
2022-12-23T05:37:22.198Z,100444.19
2022-12-23T05:39:50.130Z,100443.66
2022-12-23T05:42:19.455Z,100438.75
2022-12-23T05:44:47.540Z,100450.31
2022-12-23T05:47:16.842Z,100430.06
2022-12-23T05:49:44.819Z,100447.09
2022-12-23T05:52:12.904Z,100449.97
2022-12-23T05:54:41.875Z,100462.03
2022-12-23T05:57:09.747Z,100467.94
2022-12-23T05:59:37.613Z,100478.81
2022-12-23T06:02:06.462Z,100468.44
2022-12-23T06:04:35.992Z,100470.84
2022-12-23T06:07:03.853Z,100466.09
2022-12-23T06:09:32.023Z,100469.44
2022-12-23T06:11:59.932Z,100466.72
2022-12-23T06:14:29.374Z,100450.75
2022-12-23T06:16:57.640Z,100455.41
2022-12-23T06:19:25.788Z,100454.72
2022-12-23T06:21:55.036Z,100464.06
2022-12-23T06:24:23.335Z,100458.81
2022-12-23T06:26:56.700Z,100465.59
2022-12-23T06:29:25.186Z,100473.91
2022-12-23T06:31:53.461Z,100472.38
2022-12-23T06:34:21.438Z,100479.16
2022-12-23T06:36:49.383Z,100487.50
2022-12-23T06:39:18.619Z,100488.13
2022-12-23T06:41:46.658Z,100492.59
2022-12-23T06:44:14.666Z,100501.41
2022-12-23T06:46:42.858Z,100498.81
2022-12-23T06:49:13.382Z,100504.47
2022-12-23T06:51:42.293Z,100510.75
2022-12-23T06:54:11.701Z,100518.88
2022-12-23T06:56:41.200Z,100512.44
2022-12-23T06:59:09.174Z,100516.00
2022-12-23T07:01:37.226Z,100523.34
2022-12-23T07:04:05.469Z,100535.69
2022-12-23T07:06:33.585Z,100547.28
2022-12-23T07:09:01.475Z,100547.28
2022-12-23T07:11:29.481Z,100548.63
2022-12-23T07:13:59.476Z,100554.19
2022-12-23T07:16:27.677Z,100564.06
2022-12-23T07:18:55.547Z,100559.47
2022-12-23T07:21:28.877Z,100567.81
2022-12-23T07:23:58.197Z,100563.59
2022-12-23T07:26:26.097Z,100568.13
2022-12-23T07:28:53.897Z,100566.78
2022-12-23T07:31:23.503Z,100567.44
2022-12-23T07:33:51.420Z,100560.81
2022-12-23T07:36:19.363Z,100578.84
2022-12-23T07:38:50.613Z,100567.91
2022-12-23T07:41:18.597Z,100572.16
2022-12-23T07:43:47.044Z,100572.88
2022-12-23T07:46:15.385Z,100566.59
2022-12-23T07:48:44.785Z,100565.91
2022-12-23T07:51:12.644Z,100568.25
2022-12-23T07:53:40.607Z,100560.47
2022-12-23T07:56:09.185Z,100559.31
2022-12-23T07:58:37.089Z,100560.69
2022-12-23T08:01:09.047Z,100565.78
2022-12-23T08:03:38.184Z,100573.94
2022-12-23T08:06:09.729Z,100580.22
2022-12-23T08:08:38.524Z,100574.13
2022-12-23T08:11:08.588Z,100574.13
2022-12-23T08:13:38.439Z,100577.19
2022-12-23T08:16:08.439Z,100569.34
2022-12-23T08:18:37.946Z,100567.44
2022-12-23T08:21:09.312Z,100562.19
2022-12-23T08:23:37.471Z,100555.91
2022-12-23T08:26:07.557Z,100546.09
2022-12-23T08:28:36.319Z,100540.84
2022-12-23T08:31:06.612Z,100543.06
2022-12-23T08:33:35.065Z,100535.25
2022-12-23T08:36:03.631Z,100534.91
2022-12-23T08:38:34.592Z,100542.06
2022-12-23T08:41:02.660Z,100541.06
2022-12-23T08:43:35.859Z,100539.88
2022-12-23T08:46:05.957Z,100547.88
2022-12-23T08:48:34.868Z,100547.69
2022-12-23T08:51:07.069Z,100550.22
2022-12-23T08:53:38.148Z,100552.13
2022-12-23T08:56:07.901Z,100555.66
2022-12-23T08:58:37.780Z,100545.97
2022-12-23T09:01:07.017Z,100544.13
2022-12-23T09:03:35.661Z,100543.28
2022-12-23T09:06:05.960Z,100545.00
2022-12-23T09:08:33.817Z,100549.25
2022-12-23T09:11:03.349Z,100550.59
2022-12-23T09:13:35.521Z,100547.50
2022-12-23T09:16:04.167Z,100553.13
2022-12-23T09:20:40.674Z,100532.22
2022-12-23T09:23:08.657Z,100539.53
2022-12-23T09:25:37.881Z,100541.88
2022-12-23T09:28:07.420Z,100544.56
2022-12-23T09:30:35.440Z,100543.22
2022-12-23T09:33:03.907Z,100534.34
2022-12-23T09:35:33.316Z,100532.78
2022-12-23T09:38:02.652Z,100532.59
2022-12-23T09:40:33.292Z,100532.31
2022-12-23T09:43:14.144Z,100528.78
2022-12-23T09:45:57.509Z,100528.97
2022-12-23T09:48:30.849Z,100510.44
2022-12-23T09:50:59.106Z,100509.44
2022-12-23T09:53:46.107Z,100505.56
2022-12-23T09:56:19.583Z,100492.63
2022-12-23T09:58:49.888Z,100498.28
2022-12-23T10:01:24.509Z,100497.59
2022-12-23T10:04:20.572Z,100505.06
2022-12-23T10:06:56.305Z,100496.91
2022-12-23T10:09:29.928Z,100493.00
2022-12-23T10:11:59.309Z,100490.63
2022-12-23T10:14:32.124Z,100493.50
2022-12-23T10:17:07.895Z,100497.41
2022-12-23T10:19:41.939Z,100501.81
2022-12-23T10:22:16.863Z,100501.34
2022-12-23T10:24:48.002Z,100503.88
2022-12-23T10:27:24.287Z,100505.72
2022-12-23T10:29:52.629Z,100503.53
2022-12-23T10:32:28.016Z,100492.81
2022-12-23T10:35:01.895Z,100486.69
2022-12-23T10:37:35.620Z,100486.50
2022-12-23T10:40:12.163Z,100483.31
2022-12-23T10:42:46.954Z,100480.06
2022-12-23T10:45:39.639Z,100477.34
2022-12-23T10:48:24.102Z,100466.31
2022-12-23T10:50:59.628Z,100451.19
2022-12-23T10:53:36.714Z,100465.09
2022-12-23T10:56:08.491Z,100463.25
2022-12-23T10:58:39.467Z,100471.59
2022-12-23T11:01:15.253Z,100471.06
2022-12-23T11:03:57.398Z,100470.53
2022-12-23T11:06:28.991Z,100465.13
2022-12-23T11:09:03.919Z,100468.34
2022-12-23T11:12:01.511Z,100452.19
2022-12-23T11:14:36.980Z,100439.78
2022-12-23T11:17:06.705Z,100439.78
2022-12-23T11:19:35.091Z,100427.88
2022-12-23T11:22:03.481Z,100428.88
2022-12-23T11:24:38.029Z,100427.34
2022-12-23T11:27:16.773Z,100416.78
2022-12-23T11:29:48.038Z,100421.72
2022-12-23T11:32:19.590Z,100410.28
2022-12-23T11:34:49.440Z,100405.84
2022-12-23T11:37:33.087Z,100414.53
2022-12-23T11:40:01.292Z,100410.63
2022-12-23T11:42:31.976Z,100411.63
2022-12-23T11:45:01.349Z,100402.25
2022-12-23T11:47:34.180Z,100393.44
2022-12-23T11:50:05.384Z,100384.72
2022-12-23T11:52:35.231Z,100377.41
2022-12-23T11:55:08.217Z,100384.56
2022-12-23T11:57:42.894Z,100368.22
2022-12-23T12:00:22.314Z,100366.16
2022-12-23T12:02:53.960Z,100354.78
2022-12-23T12:05:27.258Z,100342.00
2022-12-23T12:08:01.076Z,100341.34
2022-12-23T12:10:31.575Z,100342.88
2022-12-23T12:13:04.904Z,100350.91
2022-12-23T12:15:42.660Z,100340.00
2022-12-23T12:18:14.386Z,100348.16
2022-12-23T12:20:46.095Z,100335.06
2022-12-23T12:23:19.321Z,100338.94
2022-12-23T12:25:52.112Z,100345.38
2022-12-23T12:28:27.115Z,100353.38
2022-12-23T12:31:02.245Z,100345.72
2022-12-23T12:33:37.431Z,100338.28
2022-12-23T12:36:13.640Z,100334.19
2022-12-23T12:38:41.791Z,100335.56
2022-12-23T12:41:18.112Z,100327.41
2022-12-23T12:43:54.370Z,100325.38
2022-12-23T12:46:31.872Z,100320.59
2022-12-23T12:49:07.207Z,100312.78
2022-12-23T12:51:41.392Z,100305.47
2022-12-23T12:54:20.880Z,100304.09
2022-12-23T12:56:51.388Z,100304.44
2022-12-23T12:59:26.773Z,100300.88
2022-12-23T13:02:05.318Z,100292.03
2022-12-23T13:05:00.673Z,100297.97
2022-12-23T13:07:39.411Z,100294.38
2022-12-23T13:10:16.109Z,100298.31
2022-12-23T13:12:58.267Z,100296.81
2022-12-23T13:15:34.488Z,100296.97
2022-12-23T13:18:17.289Z,100294.09
2022-12-23T13:20:53.501Z,100294.09
2022-12-23T13:23:44.791Z,100292.03
2022-12-23T13:26:27.941Z,100289.13
2022-12-23T13:29:04.523Z,100288.94
2022-12-23T13:31:48.127Z,100282.84
2022-12-23T13:34:31.342Z,100274.50
2022-12-23T13:37:09.691Z,100276.53
2022-12-23T13:39:51.017Z,100273.81
2022-12-23T13:42:26.344Z,100267.22
2022-12-23T13:44:56.304Z,100264.50
2022-12-23T13:47:35.263Z,100261.94
2022-12-23T13:50:10.089Z,100249.38
2022-12-23T13:52:55.662Z,100257.56
2022-12-23T13:55:40.140Z,100251.41
2022-12-23T13:58:14.670Z,100240.53
2022-12-23T14:00:43.058Z,100242.22
2022-12-23T14:03:25.858Z,100231.00
2022-12-23T14:05:54.834Z,100234.44
2022-12-23T14:08:32.559Z,100227.63
2022-12-23T14:11:03.377Z,100233.09
2022-12-23T14:13:35.112Z,100232.06
2022-12-23T14:16:31.584Z,100233.88
2022-12-23T14:19:30.890Z,100217.91
2022-12-23T14:22:10.867Z,100223.91
2022-12-23T14:25:06.569Z,100208.25
2022-12-23T14:27:48.079Z,100213.91
2022-12-23T14:30:18.477Z,100207.59
2022-12-23T14:32:49.526Z,100207.44
2022-12-23T14:35:24.739Z,100206.75
2022-12-23T14:38:37.791Z,100198.59
2022-12-23T14:41:25.240Z,100210.16
2022-12-23T14:44:02.828Z,100205.25
2022-12-23T14:46:58.882Z,100202.88
2022-12-23T14:49:47.721Z,100202.88
2022-12-23T14:52:44.613Z,100206.25
2022-12-23T14:55:41.034Z,100200.16
2022-12-23T14:58:22.375Z,100201.91
2022-12-23T15:00:56.805Z,100203.75
2022-12-23T15:03:24.870Z,100206.31
2022-12-23T15:05:53.470Z,100203.97
2022-12-23T15:08:32.086Z,100201.03
2022-12-23T15:11:01.001Z,100199.69
2022-12-23T15:13:31.128Z,100201.25
2022-12-23T15:16:01.770Z,100192.44
2022-12-23T15:18:30.385Z,100193.25
2022-12-23T15:21:04.569Z,100196.19
2022-12-23T15:23:34.320Z,100186.31
2022-12-23T15:26:03.663Z,100189.88
2022-12-23T15:28:38.431Z,100190.53
2022-12-23T15:31:08.219Z,100191.94
2022-12-23T15:34:02.857Z,100180.72
2022-12-23T15:36:32.345Z,100171.50
2022-12-23T15:39:04.130Z,100169.19
2022-12-23T15:41:32.779Z,100179.22
2022-12-23T15:44:01.974Z,100163.91
2022-12-23T15:46:32.604Z,100165.44
2022-12-23T15:49:00.947Z,100155.75
2022-12-23T15:54:28.983Z,100151.69
2022-12-23T15:56:59.213Z,100157.50
2022-12-23T15:59:33.020Z,100156.63
2022-12-23T16:02:40.381Z,100153.09
2022-12-23T16:05:00.440Z,100147.53
2022-12-23T16:07:34.319Z,100148.69
2022-12-23T16:10:06.258Z,100152.47
2022-12-23T16:12:35.733Z,100144.97
2022-12-23T16:15:04.773Z,100158.56
2022-12-23T16:17:34.946Z,100141.72
2022-12-23T16:20:21.658Z,100151.03
2022-12-23T16:22:52.933Z,100157.34
2022-12-23T16:25:26.192Z,100144.81
2022-12-23T16:27:58.686Z,100145.47
2022-12-23T16:30:33.138Z,100141.94
2022-12-23T16:33:04.001Z,100139.53
2022-12-23T16:35:38.890Z,100140.53
2022-12-23T16:38:17.410Z,100142.38
2022-12-23T16:40:48.554Z,100146.47
2022-12-23T16:43:17.481Z,100144.47
2022-12-23T16:45:46.634Z,100146.66
2022-12-23T16:48:21.355Z,100147.81
2022-12-23T16:50:56.090Z,100150.38
2022-12-23T16:53:23.990Z,100146.63
2022-12-23T16:55:58.510Z,100143.94
2022-12-23T16:58:28.950Z,100143.25
2022-12-23T17:00:58.333Z,100143.41
2022-12-23T17:04:16.342Z,100148.66
2022-12-23T17:06:46.828Z,100144.94
2022-12-23T17:09:15.263Z,100148.47
2022-12-23T17:11:46.261Z,100155.25
2022-12-23T17:14:18.556Z,100154.41
2022-12-23T17:16:47.147Z,100160.56
2022-12-23T17:19:23.344Z,100151.53
2022-12-23T17:22:00.890Z,100157.28
2022-12-23T17:24:29.074Z,100159.16
2022-12-23T17:26:58.684Z,100147.97
2022-12-23T17:29:27.061Z,100160.22
2022-12-23T17:31:55.505Z,100156.47
2022-12-23T17:34:25.349Z,100161.19
2022-12-23T17:36:53.543Z,100150.53
2022-12-23T17:39:22.726Z,100149.66
2022-12-23T17:41:51.287Z,100148.28
2022-12-23T17:44:20.869Z,100153.72
2022-12-23T17:46:49.088Z,100146.59
2022-12-23T17:49:17.250Z,100149.13
2022-12-23T17:51:45.663Z,100145.75
2022-12-23T17:54:22.655Z,100151.84
2022-12-23T17:56:51.047Z,100152.56
2022-12-23T17:59:20.396Z,100144.94
2022-12-23T18:01:48.399Z,100147.81
2022-12-23T18:04:16.610Z,100149.66
2022-12-23T18:06:44.693Z,100154.09
2022-12-23T18:09:12.584Z,100152.03
2022-12-23T18:11:43.350Z,100150.19
2022-12-23T18:14:17.388Z,100144.59
2022-12-23T18:16:47.334Z,100143.03
2022-12-23T18:19:18.822Z,100149.69
2022-12-23T18:21:47.536Z,100151.47
2022-12-23T18:24:15.854Z,100155.19
2022-12-23T18:26:44.229Z,100153.34
2022-12-23T18:29:12.221Z,100155.53
2022-12-23T18:31:51.049Z,100153.28
2022-12-23T18:34:20.630Z,100160.25
2022-12-23T18:36:51.531Z,100161.94
2022-12-23T18:39:20.030Z,100165.34
2022-12-23T18:41:48.138Z,100159.06
2022-12-23T18:44:18.369Z,100160.91
2022-12-23T18:46:48.219Z,100163.47
2022-12-23T18:49:16.273Z,100157.53
2022-12-23T18:51:44.149Z,100148.69
2022-12-23T18:54:14.779Z,100155.63
2022-12-23T18:56:43.269Z,100156.19
2022-12-23T18:59:16.695Z,100153.63
2022-12-23T19:01:44.688Z,100160.03
2022-12-23T19:04:14.261Z,100152.06
2022-12-23T19:06:42.415Z,100160.56
2022-12-23T19:09:15.725Z,100155.47
2022-12-23T19:11:43.772Z,100159.72
2022-12-23T19:14:12.829Z,100157.69
2022-12-23T19:16:44.659Z,100159.69
2022-12-23T19:19:16.892Z,100152.59
2022-12-23T19:21:44.847Z,100162.44
2022-12-23T19:24:12.775Z,100154.13
2022-12-23T19:26:40.679Z,100161.28
2022-12-23T19:29:10.395Z,100152.97
2022-12-23T19:31:38.546Z,100159.44
2022-12-23T19:34:11.201Z,100157.22
2022-12-23T19:36:44.734Z,100151.47
2022-12-23T19:39:16.184Z,100145.69
2022-12-23T19:41:44.739Z,100157.72
2022-12-23T19:44:12.618Z,100162.00
2022-12-23T19:46:40.493Z,100162.66
2022-12-23T19:49:09.946Z,100159.78
2022-12-23T19:51:39.758Z,100168.94
2022-12-23T19:54:09.494Z,100165.06
2022-12-23T19:56:37.457Z,100163.84
2022-12-23T19:59:05.531Z,100158.78
2022-12-23T20:01:33.834Z,100164.69
2022-12-23T20:04:01.892Z,100170.16
2022-12-23T20:06:34.118Z,100167.78
2022-12-23T20:09:04.223Z,100168.66
2022-12-23T20:11:36.896Z,100170.50
2022-12-23T20:14:05.803Z,100179.66
2022-12-23T20:16:35.277Z,100177.81
2022-12-23T20:19:04.054Z,100173.06
2022-12-23T20:21:32.153Z,100175.94
2022-12-23T20:24:00.100Z,100171.88
2022-12-23T20:26:29.187Z,100170.19
2022-12-23T20:28:58.892Z,100166.94
2022-12-23T20:31:28.609Z,100172.22
2022-12-23T20:33:57.987Z,100173.72
2022-12-23T20:36:28.554Z,100178.16
2022-12-23T20:38:57.020Z,100174.75
2022-12-23T20:41:27.202Z,100178.50
2022-12-23T20:46:45.083Z,100179.81
2022-12-23T20:49:13.655Z,100179.50
2022-12-23T20:51:41.695Z,100179.50
2022-12-23T20:54:09.791Z,100182.53
2022-12-23T20:56:37.862Z,100187.53
2022-12-23T20:59:05.757Z,100181.03
2022-12-23T21:01:36.238Z,100179.66
2022-12-23T21:04:08.445Z,100174.88
2022-12-23T21:06:37.400Z,100173.72
2022-12-23T21:09:07.042Z,100184.44
2022-12-23T21:11:40.346Z,100183.03
2022-12-23T21:14:08.464Z,100186.13
2022-12-23T21:16:37.425Z,100184.44
2022-12-23T21:19:07.867Z,100188.31
2022-12-23T21:21:36.209Z,100187.97
2022-12-23T21:24:05.774Z,100186.31
2022-12-23T21:26:35.134Z,100195.16
2022-12-23T21:29:05.706Z,100194.13
2022-12-23T21:31:35.189Z,100193.47
2022-12-23T21:34:03.817Z,100193.97
2022-12-23T21:36:34.717Z,100200.59
2022-12-23T21:39:03.488Z,100194.63
2022-12-23T21:41:37.339Z,100195.16
2022-12-23T21:44:06.492Z,100195.97
2022-12-23T21:46:35.171Z,100196.19
2022-12-23T21:49:04.095Z,100204.84
2022-12-23T21:51:40.022Z,100199.69
2022-12-23T21:54:10.080Z,100200.91
2022-12-23T21:56:39.008Z,100203.97
2022-12-23T21:59:08.544Z,100210.41
2022-12-23T22:01:36.489Z,100211.63
2022-12-23T22:04:05.153Z,100209.91
2022-12-23T22:06:37.233Z,100212.94
2022-12-23T22:09:06.561Z,100210.56
2022-12-23T22:11:37.023Z,100205.63
2022-12-23T22:14:06.914Z,100209.06
2022-12-23T22:16:36.147Z,100214.16
2022-12-23T22:19:05.677Z,100224.16
2022-12-23T22:21:36.722Z,100228.94
2022-12-23T22:24:05.493Z,100235.19
2022-12-23T22:26:34.545Z,100235.19
2022-12-23T22:29:06.618Z,100235.19
2022-12-23T22:31:38.142Z,100236.91
2022-12-23T22:34:07.662Z,100237.75
2022-12-23T22:36:37.369Z,100236.75
2022-12-23T22:39:07.784Z,100234.84
2022-12-23T22:41:36.383Z,100244.34
2022-12-23T22:44:04.876Z,100241.63
2022-12-23T22:46:33.117Z,100237.91
2022-12-23T22:49:01.036Z,100247.41
2022-12-23T22:51:32.037Z,100241.78
2022-12-23T22:54:03.356Z,100251.50
2022-12-23T22:56:31.506Z,100249.44
2022-12-23T22:58:59.658Z,100249.44
2022-12-23T23:01:29.547Z,100250.13
2022-12-23T23:03:58.991Z,100254.72
2022-12-23T23:06:30.786Z,100256.44
2022-12-23T23:08:58.917Z,100262.53
2022-12-23T23:11:29.123Z,100256.06
2022-12-23T23:13:58.171Z,100266.94
2022-12-23T23:16:27.376Z,100267.97
2022-12-23T23:18:55.633Z,100268.13
2022-12-23T23:21:23.681Z,100270.34
2022-12-23T23:23:51.771Z,100269.66
2022-12-23T23:26:20.824Z,100274.25
2022-12-23T23:28:50.146Z,100267.31
2022-12-23T23:34:05.862Z,100265.75
2022-12-23T23:36:33.951Z,100274.75
2022-12-23T23:39:02.327Z,100274.06
2022-12-23T23:41:31.070Z,100268.63
2022-12-23T23:44:00.279Z,100267.97
2022-12-23T23:46:28.204Z,100275.97
2022-12-23T23:48:56.041Z,100276.63
2022-12-23T23:51:24.492Z,100275.41
2022-12-23T23:53:52.434Z,100274.75
2022-12-23T23:56:25.433Z,100268.13
2022-12-23T23:58:54.460Z,100270.69
